This is the latest recevied weather packets stored in our database for station/object EA7RX-3. If no packets are shown the sender has not sent any weather packets the latest 10 day(s).
| Time | Temp. | Humidity | Pressure | Rain* | Wind** | Luminosity | Snow |
|---|---|---|---|---|---|---|---|
| 1777147097 | 21.11° C | 73% | 1014.1 hPa | - | - | - | - |
| 1777146497 | 20.56° C | 77% | 1014.1 hPa | - | - | - | - |
| 1777145897 | 20.56° C | 79% | 1014.1 hPa | - | - | - | - |
| 1777145297 | 21.11° C | 73% | 1014.1 hPa | - | - | - | - |
| 1777144697 | 21.67° C | 68% | 1014 hPa | - | - | - | - |
| 1777144097 | 22.22° C | 64% | 1013.6 hPa | - | - | - | - |
| 1777143497 | 22.78° C | 67% | 1013.3 hPa | - | - | - | - |
| 1777142899 | 22.22° C | 77% | 1013.2 hPa | - | - | - | - |
| 1777142297 | 22.22° C | 76% | 1013.2 hPa | - | - | - | - |
| 1777141697 | 22.78° C | 70% | 1013 hPa | - | - | - | - |
| 1777141097 | 23.33° C | 64% | 1012.8 hPa | - | - | - | - |
| 1777140497 | 24.44° C | 58% | 1012.3 hPa | - | - | - | - |
| 1777139897 | 25° C | 58% | 1012.1 hPa | - | - | - | - |
| 1777139297 | 25° C | 54% | 1011.9 hPa | - | - | - | - |
| 1777138699 | 25° C | 54% | 1012 hPa | - | - | - | - |
| 1777138097 | 25° C | 56% | 1011.8 hPa | - | - | - | - |
| 1777137497 | 25.56° C | 55% | 1011.5 hPa | - | - | - | - |
| 1777136897 | 25.56° C | 55% | 1011.5 hPa | - | - | - | - |
| 1777136297 | 25.56° C | 55% | 1011.4 hPa | - | - | - | - |
| 1777135697 | 26.11° C | 51% | 1011.1 hPa | - | - | - | - |
| 1777135099 | 27.22° C | 49% | 1010.8 hPa | - | - | - | - |
| 1777134497 | 28.89° C | 43% | 1010.4 hPa | - | - | - | - |
| 1777133897 | 28.89° C | 44% | 1010.3 hPa | - | - | - | - |
| 1777133297 | 28.33° C | 45% | 1010.4 hPa | - | - | - | - |
| 1777132697 | 28.33° C | 45% | 1010.4 hPa | - | - | - | - |
* Rain since midnight (hover to see other rain measurements)
** Current wind speed in m/s (hover to see current wind gust speed)